sensor_id;sensor_type;location;lat;lon;timestamp;P1;durP1;ratioP1;P2;durP2;ratioP2
61570;SDS011;47463;49.884;10.010;2023-02-26T00:00:00;4.1;;;8;;
61570;SDS011;47463;49.884;10.010;2023-02-26T00:05:00;4.4;;;7.9;;
61570;SDS011;47463;49.884;10.010;2023-02-26T00:10:00;4.2;;;8;;
61570;SDS011;47463;49.884;10.010;2023-02-26T00:15:00;3.8;;;7.8;;
61570;SDS011;47463;49.884;10.010;2023-02-26T00:20:00;3.9;;;7.9;;
61570;SDS011;47463;49.884;10.010;2023-02-26T00:25:00;3.9;;;7.9;;
61570;SDS011;47463;49.884;10.010;2023-02-26T00:30:00;2.3;;;7.8;;
61570;SDS011;47463;49.884;10.010;2023-02-26T00:35:00;6.2;;;8;;
61570;SDS011;47463;49.884;10.010;2023-02-26T00:40:02;6;;;8.7;;
61570;SDS011;47463;49.884;10.010;2023-02-26T00:45:00;4.9;;;8.1;;
61570;SDS011;47463;49.884;10.010;2023-02-26T00:50:03;10;;;8.9;;
61570;SDS011;47463;49.884;10.010;2023-02-26T00:55:00;10;;;8.9;;
61570;SDS011;47463;49.884;10.010;2023-02-26T01:00:00;3.8;;;8.2;;
61570;SDS011;47463;49.884;10.010;2023-02-26T01:05:00;4.1;;;8.4;;
61570;SDS011;47463;49.884;10.010;2023-02-26T01:10:00;5.1;;;8.1;;
61570;SDS011;47463;49.884;10.010;2023-02-26T01:15:00;4.8;;;8.1;;
61570;SDS011;47463;49.884;10.010;2023-02-26T01:20:00;4.6;;;8.8;;
61570;SDS011;47463;49.884;10.010;2023-02-26T01:25:00;4.6;;;8.8;;
61570;SDS011;47463;49.884;10.010;2023-02-26T01:30:00;2.1;;;7.7;;
61570;SDS011;47463;49.884;10.010;2023-02-26T01:35:01;4.3;;;8.1;;
61570;SDS011;47463;49.884;10.010;2023-02-26T01:40:15;5.3;;;8.3;;
61570;SDS011;47463;49.884;10.010;2023-02-26T01:45:00;5.2;;;8.5;;
61570;SDS011;47463;49.884;10.010;2023-02-26T01:50:04;6.6;;;8.6;;
61570;SDS011;47463;49.884;10.010;2023-02-26T01:55:00;6.6;;;8.6;;
61570;SDS011;47463;49.884;10.010;2023-02-26T02:00:00;7;;;8.8;;
61570;SDS011;47463;49.884;10.010;2023-02-26T02:05:00;9.4;;;9.6;;
61570;SDS011;47463;49.884;10.010;2023-02-26T02:10:00;8;;;9.6;;
61570;SDS011;47463;49.884;10.010;2023-02-26T02:15:03;5.2;;;9.2;;
61570;SDS011;47463;49.884;10.010;2023-02-26T02:20:38;5;;;8.3;;
61570;SDS011;47463;49.884;10.010;2023-02-26T02:25:05;5;;;8.3;;
61570;SDS011;47463;49.884;10.010;2023-02-26T02:30:34;5.3;;;8.4;;
61570;SDS011;47463;49.884;10.010;2023-02-26T02:35:02;9.3;;;8.6;;
61570;SDS011;47463;49.884;10.010;2023-02-26T02:40:00;6.1;;;8.7;;
61570;SDS011;47463;49.884;10.010;2023-02-26T02:45:00;4.1;;;8.4;;
61570;SDS011;47463;49.884;10.010;2023-02-26T02:50:01;5.8;;;8.4;;
61570;SDS011;47463;49.884;10.010;2023-02-26T02:55:01;5.8;;;8.4;;
61570;SDS011;47463;49.884;10.010;2023-02-26T03:00:00;6.3;;;8.2;;
61570;SDS011;47463;49.884;10.010;2023-02-26T03:05:00;4.6;;;7.9;;
61570;SDS011;47463;49.884;10.010;2023-02-26T03:10:00;2.6;;;7.8;;
61570;SDS011;47463;49.884;10.010;2023-02-26T03:15:00;3.8;;;7.9;;
61570;SDS011;47463;49.884;10.010;2023-02-26T03:20:03;5.2;;;7.8;;
61570;SDS011;47463;49.884;10.010;2023-02-26T03:25:02;5.2;;;7.8;;
61570;SDS011;47463;49.884;10.010;2023-02-26T03:30:02;3.3;;;7.8;;
61570;SDS011;47463;49.884;10.010;2023-02-26T03:35:01;5.2;;;7.9;;
61570;SDS011;47463;49.884;10.010;2023-02-26T03:40:01;3.7;;;7.6;;
61570;SDS011;47463;49.884;10.010;2023-02-26T03:45:00;2.6;;;7.6;;
61570;SDS011;47463;49.884;10.010;2023-02-26T03:50:00;6;;;8.3;;
61570;SDS011;47463;49.884;10.010;2023-02-26T03:55:01;6;;;8.3;;
61570;SDS011;47463;49.884;10.010;2023-02-26T04:00:00;3.6;;;7.7;;
61570;SDS011;47463;49.884;10.010;2023-02-26T04:05:00;3.6;;;7.7;;
61570;SDS011;47463;49.884;10.010;2023-02-26T04:10:00;3.3;;;7.9;;
61570;SDS011;47463;49.884;10.010;2023-02-26T04:15:00;4.1;;;7.7;;
61570;SDS011;47463;49.884;10.010;2023-02-26T04:20:00;2.6;;;7.7;;
61570;SDS011;47463;49.884;10.010;2023-02-26T04:25:00;2.6;;;7.7;;
61570;SDS011;47463;49.884;10.010;2023-02-26T04:30:00;2.1;;;7.5;;
61570;SDS011;47463;49.884;10.010;2023-02-26T04:35:00;1.6;;;7.4;;
61570;SDS011;47463;49.884;10.010;2023-02-26T04:40:00;3.3;;;7.5;;
61570;SDS011;47463;49.884;10.010;2023-02-26T04:45:00;3.2;;;7.6;;
61570;SDS011;47463;49.884;10.010;2023-02-26T04:50:00;2.8;;;7.6;;
61570;SDS011;47463;49.884;10.010;2023-02-26T04:55:00;2.8;;;7.6;;
61570;SDS011;47463;49.884;10.010;2023-02-26T05:00:00;4.3;;;7.5;;
61570;SDS011;47463;49.884;10.010;2023-02-26T05:05:00;2.3;;;7.6;;
61570;SDS011;47463;49.884;10.010;2023-02-26T05:10:00;4;;;7.7;;
61570;SDS011;47463;49.884;10.010;2023-02-26T05:15:00;5;;;7.9;;
61570;SDS011;47463;49.884;10.010;2023-02-26T05:20:00;4.2;;;7.8;;
61570;SDS011;47463;49.884;10.010;2023-02-26T05:25:00;4.2;;;7.8;;
61570;SDS011;47463;49.884;10.010;2023-02-26T05:30:00;3.3;;;7.8;;
61570;SDS011;47463;49.884;10.010;2023-02-26T05:35:00;2.6;;;7.6;;
61570;SDS011;47463;49.884;10.010;2023-02-26T05:40:00;2.1;;;7.7;;
61570;SDS011;47463;49.884;10.010;2023-02-26T05:45:00;7.7;;;8.7;;
61570;SDS011;47463;49.884;10.010;2023-02-26T05:50:00;2.4;;;7.9;;
61570;SDS011;47463;49.884;10.010;2023-02-26T05:55:00;2.4;;;7.9;;
61570;SDS011;47463;49.884;10.010;2023-02-26T06:00:00;4;;;8.1;;
61570;SDS011;47463;49.884;10.010;2023-02-26T06:05:00;3.5;;;7.9;;
61570;SDS011;47463;49.884;10.010;2023-02-26T06:10:00;3.6;;;8;;
61570;SDS011;47463;49.884;10.010;2023-02-26T06:15:00;4.2;;;7.9;;
61570;SDS011;47463;49.884;10.010;2023-02-26T06:20:00;4.2;;;7.9;;
61570;SDS011;47463;49.884;10.010;2023-02-26T06:25:00;4.2;;;7.9;;
61570;SDS011;47463;49.884;10.010;2023-02-26T06:30:00;2;;;7.8;;
61570;SDS011;47463;49.884;10.010;2023-02-26T06:35:00;7.1;;;8.4;;
61570;SDS011;47463;49.884;10.010;2023-02-26T06:40:00;6;;;8;;
61570;SDS011;47463;49.884;10.010;2023-02-26T06:45:00;4.9;;;8.3;;
61570;SDS011;47463;49.884;10.010;2023-02-26T06:50:00;2.5;;;7.9;;
61570;SDS011;47463;49.884;10.010;2023-02-26T06:55:00;2.5;;;7.9;;
61570;SDS011;47463;49.884;10.010;2023-02-26T07:00:00;3.3;;;8.2;;
61570;SDS011;47463;49.884;10.010;2023-02-26T07:05:00;2.8;;;7.9;;
61570;SDS011;47463;49.884;10.010;2023-02-26T07:10:00;3.1;;;7.9;;
61570;SDS011;47463;49.884;10.010;2023-02-26T07:15:00;2.9;;;7.6;;
61570;SDS011;47463;49.884;10.010;2023-02-26T07:20:00;3.6;;;7.7;;
61570;SDS011;47463;49.884;10.010;2023-02-26T07:25:00;3.6;;;7.7;;
61570;SDS011;47463;49.884;10.010;2023-02-26T07:30:00;1.4;;;7.6;;
61570;SDS011;47463;49.884;10.010;2023-02-26T07:35:00;2.7;;;7.9;;
61570;SDS011;47463;49.884;10.010;2023-02-26T07:40:00;2.7;;;7.6;;
61570;SDS011;47463;49.884;10.010;2023-02-26T07:45:00;3.4;;;8.1;;
61570;SDS011;47463;49.884;10.010;2023-02-26T07:50:00;2.8;;;8.1;;
61570;SDS011;47463;49.884;10.010;2023-02-26T07:55:00;2.8;;;8.1;;
61570;SDS011;47463;49.884;10.010;2023-02-26T08:00:00;3.8;;;7.8;;
61570;SDS011;47463;49.884;10.010;2023-02-26T08:05:00;4.8;;;7.7;;
61570;SDS011;47463;49.884;10.010;2023-02-26T08:10:00;3;;;7.9;;
61570;SDS011;47463;49.884;10.010;2023-02-26T08:15:00;2.2;;;7.6;;
61570;SDS011;47463;49.884;10.010;2023-02-26T08:20:00;3.5;;;7.7;;
61570;SDS011;47463;49.884;10.010;2023-02-26T08:25:00;3.5;;;7.7;;
61570;SDS011;47463;49.884;10.010;2023-02-26T08:30:00;2.5;;;7.5;;
61570;SDS011;47463;49.884;10.010;2023-02-26T08:35:00;1.9;;;7.7;;
61570;SDS011;47463;49.884;10.010;2023-02-26T08:40:00;2.9;;;7.5;;
61570;SDS011;47463;49.884;10.010;2023-02-26T08:45:00;3.3;;;7.7;;
61570;SDS011;47463;49.884;10.010;2023-02-26T08:50:00;1.9;;;7.7;;
61570;SDS011;47463;49.884;10.010;2023-02-26T08:55:00;1.9;;;7.7;;
61570;SDS011;47463;49.884;10.010;2023-02-26T09:00:00;2;;;7.6;;
61570;SDS011;47463;49.884;10.010;2023-02-26T09:05:00;2.7;;;7.5;;
61570;SDS011;47463;49.884;10.010;2023-02-26T09:10:00;1.5;;;7.6;;
61570;SDS011;47463;49.884;10.010;2023-02-26T09:15:00;2.3;;;7.5;;
61570;SDS011;47463;49.884;10.010;2023-02-26T09:20:00;1.7;;;7.4;;
61570;SDS011;47463;49.884;10.010;2023-02-26T09:25:00;1.7;;;7.4;;
61570;SDS011;47463;49.884;10.010;2023-02-26T09:30:00;1.9;;;7.7;;
61570;SDS011;47463;49.884;10.010;2023-02-26T09:35:00;2.3;;;7.5;;
61570;SDS011;47463;49.884;10.010;2023-02-26T09:40:00;1.6;;;7.3;;
61570;SDS011;47463;49.884;10.010;2023-02-26T09:45:00;1.9;;;7.4;;
61570;SDS011;47463;49.884;10.010;2023-02-26T09:50:00;2.1;;;7.3;;
61570;SDS011;47463;49.884;10.010;2023-02-26T09:55:00;2.1;;;7.3;;
61570;SDS011;47463;49.884;10.010;2023-02-26T10:00:00;0.9;;;7.1;;
61570;SDS011;47463;49.884;10.010;2023-02-26T10:05:03;0.9;;;7.3;;
61570;SDS011;47463;49.884;10.010;2023-02-26T10:10:02;1.4;;;7.4;;
61570;SDS011;47463;49.884;10.010;2023-02-26T10:15:00;1.2;;;7.3;;
61570;SDS011;47463;49.884;10.010;2023-02-26T10:20:01;1.3;;;7.3;;
61570;SDS011;47463;49.884;10.010;2023-02-26T10:25:01;1.3;;;7.3;;
61570;SDS011;47463;49.884;10.010;2023-02-26T10:30:01;1.5;;;7.2;;
61570;SDS011;47463;49.884;10.010;2023-02-26T10:35:01;1.4;;;7.2;;
61570;SDS011;47463;49.884;10.010;2023-02-26T10:40:01;1.9;;;7.3;;
61570;SDS011;47463;49.884;10.010;2023-02-26T10:45:15;0.7;;;7.1;;
61570;SDS011;47463;49.884;10.010;2023-02-26T10:50:00;1;;;7.2;;
61570;SDS011;47463;49.884;10.010;2023-02-26T10:55:04;1;;;7.2;;
61570;SDS011;47463;49.884;10.010;2023-02-26T11:00:00;1.2;;;7.3;;
61570;SDS011;47463;49.884;10.010;2023-02-26T11:05:00;1.7;;;7.2;;
61570;SDS011;47463;49.884;10.010;2023-02-26T11:10:00;1.8;;;7.3;;
61570;SDS011;47463;49.884;10.010;2023-02-26T11:15:00;1;;;7.2;;
61570;SDS011;47463;49.884;10.010;2023-02-26T11:20:01;1.5;;;7.3;;
61570;SDS011;47463;49.884;10.010;2023-02-26T11:25:00;1.5;;;7.3;;
61570;SDS011;47463;49.884;10.010;2023-02-26T11:30:02;1;;;7.3;;
61570;SDS011;47463;49.884;10.010;2023-02-26T11:35:00;0.7;;;7.1;;
61570;SDS011;47463;49.884;10.010;2023-02-26T11:40:02;1.8;;;7.6;;
61570;SDS011;47463;49.884;10.010;2023-02-26T11:45:00;1.6;;;7.5;;
61570;SDS011;47463;49.884;10.010;2023-02-26T11:50:00;1.9;;;7.5;;
61570;SDS011;47463;49.884;10.010;2023-02-26T11:55:01;1.9;;;7.5;;
61570;SDS011;47463;49.884;10.010;2023-02-26T12:00:00;1.1;;;7.3;;
61570;SDS011;47463;49.884;10.010;2023-02-26T12:05:00;1.6;;;7.2;;
61570;SDS011;47463;49.884;10.010;2023-02-26T12:10:00;1.5;;;7.4;;
61570;SDS011;47463;49.884;10.010;2023-02-26T12:15:05;1.9;;;7.3;;
61570;SDS011;47463;49.884;10.010;2023-02-26T12:20:02;3.2;;;7.4;;
61570;SDS011;47463;49.884;10.010;2023-02-26T12:25:05;3.2;;;7.4;;
61570;SDS011;47463;49.884;10.010;2023-02-26T12:30:02;4.3;;;8;;
61570;SDS011;47463;49.884;10.010;2023-02-26T12:35:10;2;;;7.5;;
61570;SDS011;47463;49.884;10.010;2023-02-26T12:40:02;1.3;;;7.5;;
61570;SDS011;47463;49.884;10.010;2023-02-26T12:45:05;1.4;;;7.7;;
61570;SDS011;47463;49.884;10.010;2023-02-26T12:50:02;2.4;;;7.5;;
61570;SDS011;47463;49.884;10.010;2023-02-26T12:55:03;2.4;;;7.5;;
61570;SDS011;47463;49.884;10.010;2023-02-26T13:00:03;1.5;;;7.4;;
61570;SDS011;47463;49.884;10.010;2023-02-26T13:05:03;2.3;;;7.2;;
61570;SDS011;47463;49.884;10.010;2023-02-26T13:10:00;1.5;;;7.3;;
61570;SDS011;47463;49.884;10.010;2023-02-26T13:15:02;1.1;;;7.4;;
61570;SDS011;47463;49.884;10.010;2023-02-26T13:20:00;2.1;;;7.6;;
61570;SDS011;47463;49.884;10.010;2023-02-26T13:25:00;2.1;;;7.6;;
61570;SDS011;47463;49.884;10.010;2023-02-26T13:30:17;1.6;;;7.3;;
61570;SDS011;47463;49.884;10.010;2023-02-26T13:35:00;1.3;;;7.3;;
61570;SDS011;47463;49.884;10.010;2023-02-26T13:40:02;1.1;;;7.1;;
61570;SDS011;47463;49.884;10.010;2023-02-26T13:45:04;1.9;;;7.2;;
61570;SDS011;47463;49.884;10.010;2023-02-26T13:50:03;0.9;;;7.2;;
61570;SDS011;47463;49.884;10.010;2023-02-26T13:55:00;0.9;;;7.2;;
61570;SDS011;47463;49.884;10.010;2023-02-26T14:00:00;1.5;;;7.3;;
61570;SDS011;47463;49.884;10.010;2023-02-26T14:05:00;0.9;;;7.3;;
61570;SDS011;47463;49.884;10.010;2023-02-26T14:10:00;1.1;;;7.3;;
61570;SDS011;47463;49.884;10.010;2023-02-26T14:15:38;1.1;;;7.3;;
61570;SDS011;47463;49.884;10.010;2023-02-26T14:20:32;2.2;;;7.3;;
61570;SDS011;47463;49.884;10.010;2023-02-26T14:25:04;2.2;;;7.3;;
61570;SDS011;47463;49.884;10.010;2023-02-26T14:30:03;0.9;;;7.2;;
61570;SDS011;47463;49.884;10.010;2023-02-26T14:35:02;0.9;;;7;;
61570;SDS011;47463;49.884;10.010;2023-02-26T14:40:01;1.2;;;7.2;;
61570;SDS011;47463;49.884;10.010;2023-02-26T14:45:02;0.7;;;7;;
61570;SDS011;47463;49.884;10.010;2023-02-26T14:50:00;1.2;;;7.2;;
61570;SDS011;47463;49.884;10.010;2023-02-26T14:55:02;1.2;;;7.2;;
61570;SDS011;47463;49.884;10.010;2023-02-26T15:00:04;0.7;;;6.9;;
61570;SDS011;47463;49.884;10.010;2023-02-26T15:05:10;0.7;;;7;;
61570;SDS011;47463;49.884;10.010;2023-02-26T15:10:05;3.1;;;7.1;;
61570;SDS011;47463;49.884;10.010;2023-02-26T15:15:02;1.6;;;7.1;;
61570;SDS011;47463;49.884;10.010;2023-02-26T15:20:03;1.5;;;7.1;;
61570;SDS011;47463;49.884;10.010;2023-02-26T15:25:00;1.5;;;7.1;;
61570;SDS011;47463;49.884;10.010;2023-02-26T15:30:00;0.6;;;7;;
61570;SDS011;47463;49.884;10.010;2023-02-26T15:35:00;1.4;;;7.1;;
61570;SDS011;47463;49.884;10.010;2023-02-26T15:40:02;1.5;;;7.1;;
61570;SDS011;47463;49.884;10.010;2023-02-26T15:45:00;1.3;;;7.1;;
61570;SDS011;47463;49.884;10.010;2023-02-26T15:50:00;0.7;;;7;;
61570;SDS011;47463;49.884;10.010;2023-02-26T15:55:01;0.7;;;7;;
61570;SDS011;47463;49.884;10.010;2023-02-26T16:00:03;1.1;;;7.2;;
61570;SDS011;47463;49.884;10.010;2023-02-26T16:05:00;2.8;;;7.2;;
61570;SDS011;47463;49.884;10.010;2023-02-26T16:10:03;1.2;;;7.1;;
61570;SDS011;47463;49.884;10.010;2023-02-26T16:15:00;3.1;;;7.4;;
61570;SDS011;47463;49.884;10.010;2023-02-26T16:20:01;3.1;;;7.3;;
61570;SDS011;47463;49.884;10.010;2023-02-26T16:25:01;3.1;;;7.3;;
61570;SDS011;47463;49.884;10.010;2023-02-26T16:30:00;1.7;;;7.2;;
61570;SDS011;47463;49.884;10.010;2023-02-26T16:35:01;1.4;;;7.2;;
61570;SDS011;47463;49.884;10.010;2023-02-26T16:40:04;1.3;;;7.3;;
61570;SDS011;47463;49.884;10.010;2023-02-26T16:45:01;1.1;;;6.9;;
61570;SDS011;47463;49.884;10.010;2023-02-26T16:50:00;0.7;;;6.9;;
61570;SDS011;47463;49.884;10.010;2023-02-26T16:55:02;0.7;;;6.9;;
61570;SDS011;47463;49.884;10.010;2023-02-26T17:00:00;3.1;;;7.3;;
61570;SDS011;47463;49.884;10.010;2023-02-26T17:05:01;0.8;;;7;;
61570;SDS011;47463;49.884;10.010;2023-02-26T17:10:04;1.4;;;7.1;;
61570;SDS011;47463;49.884;10.010;2023-02-26T17:15:00;1.3;;;7.3;;
61570;SDS011;47463;49.884;10.010;2023-02-26T17:20:00;1.4;;;7.1;;
61570;SDS011;47463;49.884;10.010;2023-02-26T17:25:00;1.4;;;7.1;;
61570;SDS011;47463;49.884;10.010;2023-02-26T17:30:00;2;;;7.2;;
61570;SDS011;47463;49.884;10.010;2023-02-26T17:35:00;1.6;;;7.1;;
61570;SDS011;47463;49.884;10.010;2023-02-26T17:40:00;0.8;;;7.2;;
61570;SDS011;47463;49.884;10.010;2023-02-26T17:45:00;1.4;;;7.2;;
61570;SDS011;47463;49.884;10.010;2023-02-26T17:50:00;1.2;;;7.2;;
61570;SDS011;47463;49.884;10.010;2023-02-26T17:55:00;1.2;;;7.2;;
61570;SDS011;47463;49.884;10.010;2023-02-26T18:00:00;1.1;;;7.1;;
61570;SDS011;47463;49.884;10.010;2023-02-26T18:05:00;2;;;7.3;;
61570;SDS011;47463;49.884;10.010;2023-02-26T18:10:00;2.7;;;7.4;;
61570;SDS011;47463;49.884;10.010;2023-02-26T18:15:00;2.3;;;7.3;;
61570;SDS011;47463;49.884;10.010;2023-02-26T18:20:00;1.5;;;7.3;;
61570;SDS011;47463;49.884;10.010;2023-02-26T18:25:00;1.5;;;7.3;;
61570;SDS011;47463;49.884;10.010;2023-02-26T18:30:00;2.4;;;7.6;;
61570;SDS011;47463;49.884;10.010;2023-02-26T18:35:00;2.4;;;7.5;;
61570;SDS011;47463;49.884;10.010;2023-02-26T18:40:00;1.6;;;7.7;;
61570;SDS011;47463;49.884;10.010;2023-02-26T18:45:00;2.5;;;7.4;;
61570;SDS011;47463;49.884;10.010;2023-02-26T18:50:00;4.1;;;7.9;;
61570;SDS011;47463;49.884;10.010;2023-02-26T18:55:00;4.1;;;7.9;;
61570;SDS011;47463;49.884;10.010;2023-02-26T19:00:00;2.5;;;7.5;;
61570;SDS011;47463;49.884;10.010;2023-02-26T19:05:00;3.3;;;7.8;;
61570;SDS011;47463;49.884;10.010;2023-02-26T19:10:00;3.5;;;7.6;;
61570;SDS011;47463;49.884;10.010;2023-02-26T19:15:00;1.7;;;7.5;;
61570;SDS011;47463;49.884;10.010;2023-02-26T19:20:00;1.8;;;7.6;;
61570;SDS011;47463;49.884;10.010;2023-02-26T19:25:00;1.8;;;7.6;;
61570;SDS011;47463;49.884;10.010;2023-02-26T19:30:00;2.2;;;7.6;;
61570;SDS011;47463;49.884;10.010;2023-02-26T19:35:00;2.7;;;8;;
61570;SDS011;47463;49.884;10.010;2023-02-26T19:40:00;3.7;;;8;;
61570;SDS011;47463;49.884;10.010;2023-02-26T19:45:00;1.8;;;7.9;;
61570;SDS011;47463;49.884;10.010;2023-02-26T19:50:00;2.4;;;7.9;;
61570;SDS011;47463;49.884;10.010;2023-02-26T19:55:00;2.4;;;7.9;;
61570;SDS011;47463;49.884;10.010;2023-02-26T20:00:00;4.2;;;8.3;;
61570;SDS011;47463;49.884;10.010;2023-02-26T20:05:00;2;;;7.8;;
61570;SDS011;47463;49.884;10.010;2023-02-26T20:10:00;3.4;;;8.2;;
61570;SDS011;47463;49.884;10.010;2023-02-26T20:15:00;2.7;;;7.9;;
61570;SDS011;47463;49.884;10.010;2023-02-26T20:20:00;3.5;;;8.7;;
61570;SDS011;47463;49.884;10.010;2023-02-26T20:25:00;3.5;;;8.7;;
61570;SDS011;47463;49.884;10.010;2023-02-26T20:30:00;2.7;;;8;;
61570;SDS011;47463;49.884;10.010;2023-02-26T20:35:00;4.2;;;8.1;;
61570;SDS011;47463;49.884;10.010;2023-02-26T20:40:00;3.1;;;8.2;;
61570;SDS011;47463;49.884;10.010;2023-02-26T20:45:00;2.6;;;8.2;;
61570;SDS011;47463;49.884;10.010;2023-02-26T20:50:00;3.8;;;8.2;;
61570;SDS011;47463;49.884;10.010;2023-02-26T20:55:00;3.8;;;8.2;;
61570;SDS011;47463;49.884;10.010;2023-02-26T21:00:00;4.2;;;8.1;;
61570;SDS011;47463;49.884;10.010;2023-02-26T21:05:00;4.2;;;8.9;;
61570;SDS011;47463;49.884;10.010;2023-02-26T21:10:00;4.3;;;8.8;;
61570;SDS011;47463;49.884;10.010;2023-02-26T21:15:00;4;;;8.6;;
61570;SDS011;47463;49.884;10.010;2023-02-26T21:20:00;5.3;;;8.6;;
61570;SDS011;47463;49.884;10.010;2023-02-26T21:25:00;5.3;;;8.6;;
61570;SDS011;47463;49.884;10.010;2023-02-26T21:30:00;4.4;;;8.5;;
61570;SDS011;47463;49.884;10.010;2023-02-26T21:35:00;5.9;;;8.7;;
61570;SDS011;47463;49.884;10.010;2023-02-26T21:40:00;4.4;;;8.3;;
61570;SDS011;47463;49.884;10.010;2023-02-26T21:45:00;4.2;;;8.3;;
61570;SDS011;47463;49.884;10.010;2023-02-26T21:50:00;4.4;;;8.2;;
61570;SDS011;47463;49.884;10.010;2023-02-26T21:55:00;4.4;;;8.2;;
61570;SDS011;47463;49.884;10.010;2023-02-26T22:00:00;3.8;;;8.2;;
61570;SDS011;47463;49.884;10.010;2023-02-26T22:05:00;2.9;;;8.1;;
61570;SDS011;47463;49.884;10.010;2023-02-26T22:10:00;5.2;;;8.2;;
61570;SDS011;47463;49.884;10.010;2023-02-26T22:15:00;4.1;;;8.2;;
61570;SDS011;47463;49.884;10.010;2023-02-26T22:20:00;3.5;;;8.3;;
61570;SDS011;47463;49.884;10.010;2023-02-26T22:25:00;3.5;;;8.3;;
61570;SDS011;47463;49.884;10.010;2023-02-26T22:30:00;3.3;;;8.1;;
61570;SDS011;47463;49.884;10.010;2023-02-26T22:35:00;2.9;;;8.2;;
61570;SDS011;47463;49.884;10.010;2023-02-26T22:40:00;4;;;8.1;;
61570;SDS011;47463;49.884;10.010;2023-02-26T22:45:00;3.5;;;8.3;;
61570;SDS011;47463;49.884;10.010;2023-02-26T22:50:00;4.9;;;8.6;;
61570;SDS011;47463;49.884;10.010;2023-02-26T22:55:00;4.9;;;8.6;;
61570;SDS011;47463;49.884;10.010;2023-02-26T23:00:00;3.5;;;8.1;;
61570;SDS011;47463;49.884;10.010;2023-02-26T23:05:00;3.6;;;8.3;;
61570;SDS011;47463;49.884;10.010;2023-02-26T23:10:00;3.2;;;8.3;;
61570;SDS011;47463;49.884;10.010;2023-02-26T23:15:00;7;;;8.5;;
61570;SDS011;47463;49.884;10.010;2023-02-26T23:20:00;4.6;;;8.2;;
61570;SDS011;47463;49.884;10.010;2023-02-26T23:25:00;4.6;;;8.2;;
61570;SDS011;47463;49.884;10.010;2023-02-26T23:30:00;5.3;;;8.3;;
61570;SDS011;47463;49.884;10.010;2023-02-26T23:35:00;3.2;;;8.2;;
61570;SDS011;47463;49.884;10.010;2023-02-26T23:40:00;3.8;;;8.2;;
61570;SDS011;47463;49.884;10.010;2023-02-26T23:45:00;5.7;;;8.4;;
61570;SDS011;47463;49.884;10.010;2023-02-26T23:50:00;2.8;;;8;;
61570;SDS011;47463;49.884;10.010;2023-02-26T23:55:00;2.8;;;8;;
